Tacoma, Washington
Current Conditions -  °F | °C
As of 6:23 AM on Friday 24 Oct 2014 (Local Time) from KTCM Reporting Station
Haze Haze  
Wind Chill: 45°   Ceiling: Unl
Heat Index: 45°   Visibility: 2.5mi
Dew Point: 45°   Wind: 2mph
Humidity: 100%   Direction: 150°SSE
Pressure: 30.02"   Gusts: NA
Location:  47.26°N, 122.44°W
Report Text: KTCM 241323Z AUTO 15002KT 2 1/2SM BR CLR 07/07 A3002 RMK AO2 VIS 1 1/4V2 1/2 $
Loading
Personal Weather Stations






























Interactive Weather Map New forecast layout! Learn more

10-Day Weather Forecast

Advertisements
Track Severe Weather on mobile